Terminal Aerodrome Forecast
Issued by NWS

Home | Current Version | Previous Version | Text Only | Print | Product List | Glossary On
Versions: 1 2 3 4 5 6 7 8 9 10 11 12 13 14 15 16 17 18 19 20 21
077
FTUS46 KSEW 251720
TAFPAE
TAF
KPAE 251720Z 2518/2618 VRB03KT P6SM BKN040 BKN060
     FM252000 33005KT P6SM SCT040 SCT060
     FM260000 01005KT P6SM SKC
     FM260300 VRB03KT P6SM FEW250=

USA.gov is the U.S. government's official web portal to all federal, state and local government web resources and services.